Aérodrome :
LOGIN :

S'inscrire | Disclaimer

   EN    FR    IT 

 










Légende :    VFR   VFR Marginal   IFR   IFR Intensif   IFR Très Intensif
Visi : 
Plafond : 
>= 8 km
>= 3000ft
5 à 8 km
1000 à 3000 ft
1500m à 5 km
500 à 1000 ft
800 à 1500m
200 à 500 ft
< 800m
< 200 ft
Symboles :   Orages  Brouillard  Fortes neiges  Fortes précipitations  Vent > 20 kt
SIGMETs :   Divers  Orages  Givrage  Turbulence  Onde Orograph.  Cendres Volcan.






- Altitude de l'aérodrome : 459 ft
- Code IATA : CER


LFRC - Cherbourg / Maupertus

DERNIER METAR :
  • 241200Z AUTO 28014G25KT 230V320 2500 0750 R28/1000U RA BCFG BKN009/// BKN014/// OVC020/// 05/04 Q0996 TEMPO VRB20G35KT TSRAGS BKN012 BKN020CB

METARs EXPIRÉS :
  • 241130Z AUTO 21007KT 5000 1800 R28/1300D -RA BR FEW010/// BKN016/// BKN021/// 05/05 Q0996 TEMPO VRB15G25KT 1500 TSRAGS BKN012 BKN020CB
  • 241100Z AUTO 23009KT 5000 2300 RA BR FEW012/// BKN021/// BKN026/// 04/04 Q0996 TEMPO VRB20G35KT 1500 TSRAGS BKN012 BKN020CB
  • 241030Z AUTO 22012KT 8000 RA FEW010/// BKN031/// BKN042/// 04/04 Q0996 TEMPO VRB20G35KT 1500 TSRAGS BKN012 BKN020CB
  • 241000Z AUTO 20012KT 7000 3200 -RA FEW009/// BKN015/// BKN032/// 05/04 Q0995 TEMPO VRB20G35KT 1500 TSRAGS BKN012 BKN020CB
  • 240930Z AUTO 18009KT 9999 FEW016/// BKN030/// BKN036/// 05/04 Q0996 TEMPO VRB20G35KT 1500 TSRAGS BKN012 BKN020CB
  • 240900Z AUTO 21009KT 3800 1600 RA BR FEW015/// SCT022/// BKN030/// 04/03 Q0995 TEMPO VRB20G35KT 1500 TSRAGS BKN012 BKN020CB
  • 240830Z AUTO 19009KT 9999 -RA FEW010/// BKN029/// BKN042/// 04/04 Q0995 TEMPO VRB20G35KT 1500 TSRAGS BKN012 BKN020CB
  • 240800Z AUTO 21007KT 9999 SCT020/// BKN025/// OVC031/// 04/04 Q0995 TEMPO 20015G30KT 1500 TSRAGS BKN013 BKN020CB
  • 240730Z AUTO 22010KT 5000 0900 R28/1100D +RA BCFG FEW018/// SCT026/// BKN031/// 04/03 Q0995 TEMPO 20015G30KT 1500 TSRAGS BKN013 BKN020CB

TAF TAF LFRC
Valide du 24 à 12h jusqu'au 24 à 21h UTC


241100Z 2412/2421 22010KT 9999 BKN030
TEMPO 2412/2421 VRB15G25KT 3000 SHRA BKN012 BKN020CB
PROB40
TEMPO 2412/2414 VRB20G35KT 1500 TSRAGS
BECMG 2414/2416 28010KT



MET'MAP, la Météo Aéronautique d'un coup d'oeil ! - Copyright ORBIFLY Décembre 2007 - Disclaimer

ORBIFLY MET'MAP TEAM :

Programmation & Développement : Alexandra Zaïnal
Sur une idée originale de : Baudouin d'Aumeries
Soutien technique & logistique : Manuel Goepfert
Assistance : Marc-Olivier Méhu




SOURCES & CREDITS :

   NOAA